Time;durP1;ratioP1;P1;durP2;ratioP2;P2;SDS_P1;SDS_P2;PMS_P1;PMS_P2;Temp;Humidity;BMP_temperature;BMP_pressure;BME280_temperature;BME280_humidity;BME280_pressure;Samples;Min_cycle;Max_cycle;Signal;HPM_P1;HPM_P2
2022/05/06 00:00:19;;;;;;;22.45;11.55;;;9.20;99.90;;;;;;6186435;23;20112;-84
2022/05/06 00:02:45;;;;;;;21.85;11.80;;;9.20;99.90;;;;;;6185447;23;20111;-85
2022/05/06 00:05:11;;;;;;;24.60;12.77;;;9.10;99.90;;;;;;6164142;23;20385;-84
2022/05/06 00:07:37;;;;;;;23.88;12.73;;;9.10;99.90;;;;;;6186433;23;20024;-85
2022/05/06 00:10:04;;;;;;;24.48;11.93;;;9.00;99.90;;;;;;6159161;23;20472;-85
2022/05/06 00:12:31;;;;;;;24.75;12.13;;;9.10;99.90;;;;;;6159893;23;20323;-85
2022/05/06 00:14:56;;;;;;;25.58;12.82;;;9.00;99.90;;;;;;6159028;23;20025;-85
2022/05/06 00:17:22;;;;;;;23.30;12.05;;;8.90;99.90;;;;;;6185292;23;20338;-85
2022/05/06 00:19:48;;;;;;;25.20;13.30;;;8.90;99.90;;;;;;6158734;23;20020;-85
2022/05/06 00:22:13;;;;;;;24.00;12.77;;;8.80;99.90;;;;;;6159226;23;20017;-85
2022/05/06 00:24:39;;;;;;;24.08;12.77;;;8.80;99.90;;;;;;6184947;23;20009;-85
2022/05/06 00:27:05;;;;;;;25.95;12.88;;;8.80;99.90;;;;;;6186135;23;20010;-85
2022/05/06 00:29:31;;;;;;;23.92;11.82;;;8.70;99.90;;;;;;6185419;23;20526;-85
2022/05/06 00:31:57;;;;;;;23.77;12.40;;;8.70;99.90;;;;;;6157970;23;20018;-84
2022/05/06 00:34:23;;;;;;;26.15;12.52;;;8.60;99.90;;;;;;6159156;23;20028;-85
2022/05/06 00:36:49;;;;;;;25.63;12.85;;;8.60;99.90;;;;;;6185379;23;20009;-84
2022/05/06 00:39:15;;;;;;;27.70;13.50;;;8.50;99.90;;;;;;6158391;23;20025;-85
2022/05/06 00:41:40;;;;;;;25.02;13.43;;;8.50;99.90;;;;;;6184888;23;20017;-85
2022/05/06 00:44:07;;;;;;;23.95;13.15;;;8.40;99.90;;;;;;6186209;23;20079;-85
2022/05/06 00:46:35;;;;;;;25.25;13.02;;;8.40;99.90;;;;;;6184987;23;20088;-85
2022/05/06 00:49:01;;;;;;;27.05;13.32;;;8.40;99.90;;;;;;6185002;23;20081;-85
2022/05/06 00:51:27;;;;;;;24.23;12.95;;;8.40;99.90;;;;;;6158418;23;20484;-85
2022/05/06 00:53:54;;;;;;;24.08;13.05;;;8.40;99.90;;;;;;6158700;23;20021;-85
2022/05/06 00:56:24;;;;;;;25.13;12.93;;;8.30;99.90;;;;;;6158860;23;20063;-84
2022/05/06 00:58:51;;;;;;;28.90;12.82;;;8.30;99.90;;;;;;6158244;23;20068;-84
2022/05/06 01:01:17;;;;;;;26.85;13.68;;;8.30;99.90;;;;;;6185959;23;20017;-85
2022/05/06 01:03:42;;;;;;;27.25;14.27;;;8.30;99.90;;;;;;6158350;23;20059;-85
2022/05/06 01:06:13;;;;;;;26.23;13.73;;;8.20;99.90;;;;;;6185296;23;20503;-85
2022/05/06 01:08:39;;;;;;;25.92;13.00;;;8.30;99.90;;;;;;6159925;23;20449;-85
2022/05/06 01:11:06;;;;;;;25.63;13.10;;;8.20;99.90;;;;;;6159848;23;20338;-85
2022/05/06 01:13:37;;;;;;;25.05;12.93;;;8.20;99.90;;;;;;6185075;23;20019;-84
2022/05/06 01:16:03;;;;;;;28.00;13.82;;;8.10;99.90;;;;;;6158915;23;20464;-85
2022/05/06 01:18:29;;;;;;;25.52;12.68;;;8.10;99.90;;;;;;6159025;23;20096;-85
2022/05/06 01:20:58;;;;;;;26.05;13.82;;;8.00;99.90;;;;;;6184040;23;20055;-85
2022/05/06 01:23:24;;;;;;;26.27;13.45;;;8.00;99.90;;;;;;6185642;23;20017;-85
2022/05/06 01:25:50;;;;;;;24.88;13.07;;;7.90;99.90;;;;;;6185187;23;20040;-85
2022/05/06 01:28:16;;;;;;;23.50;13.18;;;7.90;99.90;;;;;;6158141;23;20500;-84
2022/05/06 01:30:47;;;;;;;27.40;14.05;;;7.90;99.90;;;;;;6185380;23;20013;-85
2022/05/06 01:33:21;;;;;;;29.52;13.65;;;7.80;99.90;;;;;;6185416;23;20024;-84
2022/05/06 01:35:53;;;;;;;25.40;13.40;;;7.80;99.90;;;;;;6183946;23;20071;-85
2022/05/06 01:38:31;;;;;;;29.10;14.55;;;7.70;99.90;;;;;;6158383;23;20009;-85
2022/05/06 01:41:04;;;;;;;27.40;13.80;;;7.70;99.90;;;;;;6157356;23;20017;-85
2022/05/06 01:44:03;;;;;;;24.65;13.02;;;7.70;99.90;;;;;;6185366;23;20021;-85
2022/05/06 01:46:29;;;;;;;28.33;13.50;;;7.70;99.90;;;;;;6174794;23;20013;-84
2022/05/06 01:48:57;;;;;;;26.20;13.38;;;7.60;99.90;;;;;;6197810;23;20028;-85
2022/05/06 01:51:23;;;;;;;25.98;13.35;;;7.60;99.90;;;;;;6158970;23;20009;-85
2022/05/06 01:53:49;;;;;;;24.95;13.18;;;7.50;99.90;;;;;;6158393;23;20344;-84
2022/05/06 01:56:19;;;;;;;29.38;13.48;;;7.50;99.90;;;;;;6184503;23;20017;-85
2022/05/06 01:58:46;;;;;;;25.73;12.90;;;7.40;99.90;;;;;;6189126;23;20017;-85
2022/05/06 02:01:12;;;;;;;29.33;14.40;;;7.30;99.90;;;;;;6185107;23;20021;-85
2022/05/06 02:06:21;;;;;;;;;;;7.30;99.90;;;;;;6158811;23;20025;-85
2022/05/06 02:08:47;;;;;;;28.40;14.48;;;7.30;99.90;;;;;;6157313;23;19912;-84
2022/05/06 02:11:13;;;;;;;29.23;14.45;;;7.20;99.90;;;;;;6158620;23;20021;-85
2022/05/06 02:13:39;;;;;;;26.58;13.18;;;7.20;99.90;;;;;;6184820;23;20080;-85
2022/05/06 02:16:05;;;;;;;27.17;14.02;;;7.10;99.90;;;;;;6157968;23;20020;-85
2022/05/06 02:18:30;;;;;;;29.08;13.93;;;7.10;99.90;;;;;;6185986;23;20345;-85
2022/05/06 02:20:57;;;;;;;29.60;14.25;;;7.10;99.90;;;;;;6185837;23;20106;-84
2022/05/06 02:23:23;;;;;;;28.58;13.95;;;7.10;99.90;;;;;;6157832;23;20024;-85
2022/05/06 02:25:50;;;;;;;29.15;14.82;;;7.10;99.90;;;;;;6157748;23;20013;-84
2022/05/06 02:28:16;;;;;;;29.35;14.15;;;7.10;99.90;;;;;;6158654;23;20024;-84
2022/05/06 02:33:27;;;;;;;28.60;14.38;;;7.00;99.90;;;;;;6185002;23;20383;-84
2022/05/06 02:35:53;;;;;;;27.52;13.60;;;7.00;99.90;;;;;;6184667;23;20096;-84
2022/05/06 02:38:20;;;;;;;31.15;14.15;;;7.00;99.90;;;;;;6157595;23;20491;-84
2022/05/06 02:40:47;;;;;;;30.52;14.20;;;7.00;99.90;;;;;;6184812;23;20024;-84
2022/05/06 02:43:12;;;;;;;25.58;13.15;;;6.90;99.90;;;;;;6157893;23;20080;-84
2022/05/06 02:45:38;;;;;;;27.80;14.32;;;7.00;99.90;;;;;;6157332;23;20434;-84
2022/05/06 02:48:04;;;;;;;28.90;13.80;;;7.00;99.90;;;;;;6158450;23;20017;-84
2022/05/06 02:50:30;;;;;;;28.73;13.10;;;6.90;99.90;;;;;;6184600;23;20013;-84
2022/05/06 02:52:55;;;;;;;26.13;13.90;;;7.20;99.90;;;;;;6183977;23;20013;-84
2022/05/06 02:55:23;;;;;;;25.30;13.82;;;6.90;99.90;;;;;;6158477;23;20075;-84
2022/05/06 02:57:49;;;;;;;29.85;14.57;;;6.90;99.90;;;;;;6184166;23;20005;-83
2022/05/06 03:00:16;;;;;;;28.20;13.50;;;6.80;99.90;;;;;;6184789;23;20044;-84
2022/05/06 03:02:41;;;;;;;30.42;13.40;;;6.80;99.90;;;;;;6158178;23;20454;-84
2022/05/06 03:05:08;;;;;;;27.77;13.95;;;6.80;99.90;;;;;;6157566;23;20071;-84
2022/05/06 03:07:33;;;;;;;27.55;13.75;;;6.70;99.90;;;;;;6184827;23;20341;-84
2022/05/06 03:09:59;;;;;;;27.27;13.60;;;6.70;99.90;;;;;;6157962;23;20100;-84
2022/05/06 03:12:29;;;;;;;27.80;13.23;;;6.70;99.90;;;;;;6184556;23;20039;-84
2022/05/06 03:14:55;;;;;;;27.02;13.40;;;6.60;99.90;;;;;;6159750;23;20017;-84
2022/05/06 03:17:21;;;;;;;27.02;13.27;;;6.60;99.90;;;;;;6186843;23;20017;-84
2022/05/06 03:19:47;;;;;;;29.08;13.93;;;6.80;99.90;;;;;;6185207;23;20024;-85
2022/05/06 03:22:15;;;;;;;29.08;13.82;;;6.60;99.90;;;;;;6160045;23;20013;-84
2022/05/06 03:24:41;;;;;;;26.52;13.80;;;6.60;99.90;;;;;;6160166;23;20091;-84
2022/05/06 03:27:59;;;;;;;27.05;13.60;;;6.60;99.90;;;;;;6159121;23;20048;-84
2022/05/06 03:29:52;;;;;;;28.55;14.55;;;6.50;99.90;;;;;;6185956;23;20096;-84
2022/05/06 03:32:18;;;;;;;24.42;12.90;;;6.50;99.90;;;;;;6185941;23;20048;-84
2022/05/06 03:34:44;;;;;;;27.92;14.00;;;6.50;99.90;;;;;;6184923;23;20063;-84
2022/05/06 03:37:09;;;;;;;27.13;13.25;;;6.40;99.90;;;;;;6186432;23;20047;-84
2022/05/06 03:39:35;;;;;;;26.17;13.32;;;6.40;99.90;;;;;;6159918;23;20017;-84
2022/05/06 03:42:01;;;;;;;28.73;13.68;;;6.40;99.90;;;;;;6163588;23;20311;-84
2022/05/06 03:44:27;;;;;;;27.15;13.30;;;6.40;99.90;;;;;;6187029;23;20097;-84
2022/05/06 03:46:53;;;;;;;31.02;15.05;;;6.30;99.90;;;;;;6159412;23;20373;-84
2022/05/06 03:49:18;;;;;;;29.42;13.60;;;6.40;99.90;;;;;;6185791;23;20021;-85
2022/05/06 03:51:45;;;;;;;28.20;13.00;;;6.30;99.90;;;;;;6186971;23;20009;-84
2022/05/06 03:54:11;;;;;;;28.23;13.55;;;6.30;99.90;;;;;;6185704;23;20024;-84
2022/05/06 03:56:36;;;;;;;27.55;13.82;;;6.30;99.90;;;;;;6159788;23;20021;-84
2022/05/06 03:59:02;;;;;;;26.08;14.23;;;6.20;99.90;;;;;;6159365;23;20056;-85
2022/05/06 04:01:28;;;;;;;25.95;13.45;;;6.30;99.90;;;;;;6158726;23;20734;-85
2022/05/06 04:03:54;;;;;;;24.50;12.60;;;6.20;99.90;;;;;;6159218;23;20544;-85
2022/05/06 04:06:20;;;;;;;29.77;14.20;;;6.20;99.90;;;;;;6159294;23;20010;-84
2022/05/06 04:08:46;;;;;;;28.67;13.55;;;6.20;99.90;;;;;;6157060;23;20096;-84
2022/05/06 04:11:13;;;;;;;24.50;13.02;;;6.20;99.90;;;;;;6159304;23;20059;-84
2022/05/06 04:13:38;;;;;;;27.50;14.05;;;6.20;99.90;;;;;;6186051;23;20021;-84
2022/05/06 04:16:04;;;;;;;29.38;14.82;;;6.30;99.90;;;;;;6185483;23;20438;-84
2022/05/06 04:18:31;;;;;;;26.23;13.70;;;6.20;99.90;;;;;;6185932;23;20009;-84
2022/05/06 04:23:40;;;;;;;27.05;13.73;;;6.30;99.90;;;;;;6158298;23;20021;-84
2022/05/06 04:26:08;;;;;;;27.35;14.05;;;6.30;99.90;;;;;;6186031;23;20021;-85
2022/05/06 04:28:34;;;;;;;26.55;13.30;;;6.40;99.90;;;;;;6186224;23;20013;-84
2022/05/06 04:31:01;;;;;;;25.90;12.68;;;6.40;99.90;;;;;;6184986;23;20053;-84
2022/05/06 04:33:27;;;;;;;27.67;13.38;;;6.40;99.90;;;;;;6159086;23;20028;-85
2022/05/06 04:35:54;;;;;;;29.48;13.82;;;6.50;99.90;;;;;;6158880;23;20024;-85
2022/05/06 04:38:20;;;;;;;30.70;13.48;;;6.50;99.90;;;;;;6185029;23;20075;-84
2022/05/06 04:40:47;;;;;;;28.27;13.77;;;6.60;99.90;;;;;;6184898;23;20628;-85
2022/05/06 04:43:13;;;;;;;27.23;13.55;;;6.60;99.90;;;;;;6186028;23;20075;-84
2022/05/06 04:45:39;;;;;;;28.42;15.05;;;6.60;99.90;;;;;;6158293;23;20445;-84
2022/05/06 04:48:07;;;;;;;28.33;14.07;;;6.70;99.90;;;;;;6186008;23;20036;-85
2022/05/06 04:50:38;;;;;;;27.92;14.23;;;6.80;99.90;;;;;;6158132;23;20032;-84
2022/05/06 04:53:07;;;;;;;27.70;13.80;;;6.90;99.90;;;;;;6185841;23;20037;-84
2022/05/06 04:55:43;;;;;;;28.80;14.82;;;6.90;99.90;;;;;;6185777;23;20017;-86
2022/05/06 04:58:10;;;;;;;28.10;14.02;;;7.00;99.90;;;;;;6173612;23;20017;-85
2022/05/06 05:00:36;;;;;;;26.88;14.07;;;7.00;99.90;;;;;;6167391;23;20508;-85
2022/05/06 05:03:02;;;;;;;28.02;13.70;;;7.10;99.90;;;;;;6158947;23;20048;-85
2022/05/06 05:05:28;;;;;;;26.98;14.27;;;7.20;99.90;;;;;;6185634;23;20020;-85
2022/05/06 05:07:54;;;;;;;30.77;15.23;;;7.30;99.90;;;;;;6184844;23;20024;-84
2022/05/06 05:10:23;;;;;;;31.02;15.75;;;7.40;99.90;;;;;;6159291;23;20075;-84
2022/05/06 05:12:49;;;;;;;27.73;14.10;;;7.40;99.90;;;;;;6184609;23;20100;-85
2022/05/06 05:15:18;;;;;;;29.35;14.55;;;7.50;99.90;;;;;;6185966;23;20045;-84
2022/05/06 05:17:44;;;;;;;31.85;15.57;;;7.60;99.90;;;;;;6185527;23;20013;-85
2022/05/06 05:20:11;;;;;;;29.23;15.35;;;7.60;99.90;;;;;;6185525;23;20016;-85
2022/05/06 05:22:37;;;;;;;29.65;14.98;;;7.70;99.90;;;;;;6185852;23;20021;-85
2022/05/06 05:25:04;;;;;;;33.67;16.35;;;7.70;99.90;;;;;;6184879;23;20489;-84
2022/05/06 05:27:33;;;;;;;31.95;15.82;;;7.80;99.90;;;;;;6184202;23;20017;-84
2022/05/06 05:29:59;;;;;;;29.33;14.73;;;7.90;99.90;;;;;;6184386;23;20472;-85
2022/05/06 05:32:26;;;;;;;29.77;15.30;;;8.00;99.90;;;;;;6185319;23;20024;-85
2022/05/06 05:34:52;;;;;;;35.00;16.45;;;8.10;99.90;;;;;;6189369;23;20035;-85
2022/05/06 05:37:17;;;;;;;30.67;16.15;;;8.20;99.90;;;;;;6159034;23;20017;-85
2022/05/06 05:39:43;;;;;;;34.25;16.50;;;8.40;99.90;;;;;;6183985;23;20052;-85
2022/05/06 05:42:09;;;;;;;33.63;17.13;;;8.50;99.90;;;;;;6185432;23;20311;-85
2022/05/06 05:50:04;;;;;;;36.10;17.83;;;9.10;99.90;;;;;;6158374;23;20245;-85
2022/05/06 05:52:29;;;;;;;36.75;19.77;;;9.20;99.90;;;;;;6158308;23;20021;-85
2022/05/06 05:54:55;;;;;;;37.53;19.88;;;9.40;99.90;;;;;;6183876;23;20445;-84
2022/05/06 05:57:21;;;;;;;33.88;18.27;;;9.50;99.90;;;;;;6185613;23;20330;-84
2022/05/06 05:59:47;;;;;;;33.38;18.35;;;9.60;99.90;;;;;;6159194;23;20471;-88
2022/05/06 06:02:13;;;;;;;36.38;18.85;;;9.60;99.90;;;;;;6186686;23;20369;-95
2022/05/06 06:04:41;;;;;;;36.47;18.20;;;9.70;99.90;;;;;;6161250;23;20029;-94
2022/05/06 06:07:07;;;;;;;32.50;17.30;;;9.80;99.90;;;;;;6189469;23;20021;-95
2022/05/06 06:09:32;;;;;;;32.22;17.35;;;9.90;99.90;;;;;;6190017;23;20024;-91
2022/05/06 06:11:58;;;;;;;33.15;17.67;;;10.00;99.90;;;;;;6162952;23;20024;-95
2022/05/06 06:14:24;;;;;;;34.78;18.65;;;10.10;99.90;;;;;;6186511;23;20021;-95
2022/05/06 06:16:50;;;;;;;31.95;17.30;;;10.30;99.90;;;;;;6158411;23;20399;-91
2022/05/06 06:19:16;;;;;;;30.70;16.73;;;10.30;99.90;;;;;;6159323;23;20055;-90
2022/05/06 06:21:42;;;;;;;32.22;17.25;;;10.40;99.90;;;;;;6159121;23;20017;-90
2022/05/06 06:24:08;;;;;;;30.05;16.45;;;10.40;99.90;;;;;;6157759;23;20009;-90
2022/05/06 06:26:34;;;;;;;34.88;17.48;;;10.50;99.90;;;;;;6158756;23;20341;-91
2022/05/06 06:29:00;;;;;;;34.40;17.60;;;11.40;99.90;;;;;;6185355;23;20020;-92
2022/05/06 06:31:26;;;;;;;32.55;16.77;;;10.70;99.90;;;;;;6189494;23;20088;-91
2022/05/06 06:33:52;;;;;;;30.48;16.38;;;10.80;99.90;;;;;;6159629;23;20020;-88
2022/05/06 06:36:18;;;;;;;30.50;17.02;;;10.90;99.90;;;;;;6185960;23;20013;-93
2022/05/06 06:38:43;;;;;;;29.98;17.00;;;11.00;99.90;;;;;;6185323;23;20021;-91
2022/05/06 06:41:09;;;;;;;30.85;16.98;;;11.10;99.90;;;;;;6160013;23;20096;-92
2022/05/06 06:43:35;;;;;;;33.47;16.67;;;11.30;99.90;;;;;;6191851;23;20068;-92
2022/05/06 06:46:04;;;;;;;31.48;16.17;;;11.50;99.90;;;;;;6185487;23;20476;-91
2022/05/06 06:48:30;;;;;;;28.23;16.08;;;11.60;99.90;;;;;;6160848;23;20453;-92
2022/05/06 06:50:55;;;;;;;33.67;16.65;;;11.80;99.90;;;;;;6186923;23;20021;-92
2022/05/06 06:53:22;;;;;;;32.08;17.00;;;11.90;99.90;;;;;;6188056;23;20129;-92
2022/05/06 06:55:48;;;;;;;33.20;17.55;;;12.10;99.90;;;;;;6160338;23;20029;-91
2022/05/06 06:58:14;;;;;;;29.95;16.45;;;12.20;99.90;;;;;;6161481;23;20337;-91
2022/05/06 07:00:42;;;;;;;30.85;17.13;;;12.30;99.90;;;;;;6178805;23;20021;-91
2022/05/06 07:03:09;;;;;;;29.52;16.48;;;12.50;99.90;;;;;;6207798;23;20053;-90
2022/05/06 07:05:34;;;;;;;29.38;17.23;;;12.60;99.90;;;;;;6163362;23;20351;-91
2022/05/06 07:13:30;;;;;;;28.83;17.52;;;13.20;99.90;;;;;;6188642;23;20044;-96
2022/05/06 07:15:56;;;;;;;30.65;17.88;;;13.30;99.90;;;;;;6160872;23;20056;-92
2022/05/06 07:18:21;;;;;;;34.67;18.38;;;13.30;99.90;;;;;;6159585;23;20021;-93
2022/05/06 07:20:48;;;;;;;32.10;18.88;;;13.50;99.90;;;;;;6186772;23;20461;-95
2022/05/06 07:23:14;;;;;;;33.92;18.38;;;13.70;99.90;;;;;;6187218;23;20446;-94
2022/05/06 07:25:39;;;;;;;32.45;17.65;;;13.90;99.90;;;;;;6162204;23;20024;-95
2022/05/06 07:28:06;;;;;;;31.98;19.38;;;14.00;99.90;;;;;;6196768;23;20001;-94
2022/05/06 07:30:32;;;;;;;32.63;18.80;;;14.10;99.90;;;;;;6212819;23;20017;-94
2022/05/06 07:32:58;;;;;;;34.40;19.27;;;14.30;99.90;;;;;;6189552;23;20024;-94
2022/05/06 07:35:24;;;;;;;31.55;18.83;;;14.40;99.90;;;;;;6187775;23;20029;-93
2022/05/06 07:37:50;;;;;;;31.67;18.92;;;14.50;99.90;;;;;;6201386;23;20001;-95
2022/05/06 07:40:15;;;;;;;29.65;18.20;;;14.50;99.90;;;;;;6206388;23;20021;-94
2022/05/06 07:42:42;;;;;;;31.40;19.02;;;14.60;99.90;;;;;;6165991;23;20009;-95
2022/05/06 07:45:11;;;;;;;32.97;19.33;;;14.60;99.90;;;;;;6187768;23;20024;-95
2022/05/06 07:47:37;;;;;;;30.38;18.02;;;14.80;99.90;;;;;;6196329;23;20473;-93
2022/05/06 07:50:04;;;;;;;27.00;15.73;;;14.90;99.90;;;;;;6161319;23;20013;-94
2022/05/06 07:52:29;;;;;;;28.80;16.75;;;15.00;99.90;;;;;;6161926;23;20124;-92
2022/05/06 07:54:55;;;;;;;27.33;15.98;;;15.00;99.90;;;;;;6187032;23;20041;-93
2022/05/06 07:57:20;;;;;;;26.40;15.38;;;15.10;99.90;;;;;;6187685;23;20009;-94
2022/05/06 07:59:46;;;;;;;24.75;15.15;;;15.10;99.90;;;;;;6160494;23;20017;-93
2022/05/06 08:04:55;;;;;;;;;;;15.10;99.90;;;;;;6188381;23;20095;-92
2022/05/06 08:07:21;;;;;;;23.65;14.30;;;15.00;99.90;;;;;;6188108;23;19916;-94
2022/05/06 08:09:46;;;;;;;24.13;14.20;;;15.00;99.90;;;;;;6188500;23;20089;-95
2022/05/06 08:12:13;;;;;;;24.45;14.27;;;15.10;99.90;;;;;;6178259;23;20001;-89
2022/05/06 08:14:39;;;;;;;27.52;16.25;;;15.20;99.90;;;;;;6213232;23;20005;-95
2022/05/06 08:17:05;;;;;;;24.35;14.95;;;15.30;99.90;;;;;;6175306;23;20047;-95
2022/05/06 08:19:30;;;;;;;27.05;15.70;;;15.30;99.90;;;;;;6166074;23;20350;-94
2022/05/06 08:21:56;;;;;;;25.42;15.45;;;15.80;99.90;;;;;;6184182;23;20040;-85
2022/05/06 08:24:22;;;;;;;26.45;15.35;;;15.40;99.90;;;;;;6185935;23;20025;-91
2022/05/06 08:26:48;;;;;;;24.65;15.15;;;15.50;99.90;;;;;;6185588;23;20341;-89
2022/05/06 08:29:15;;;;;;;30.02;16.95;;;15.60;99.90;;;;;;6184808;23;20021;-90
2022/05/06 08:31:40;;;;;;;29.05;16.83;;;15.80;99.90;;;;;;6185159;23;20009;-90
2022/05/06 08:34:08;;;;;;;27.30;17.27;;;15.90;99.90;;;;;;6186070;23;20071;-92
2022/05/06 08:36:41;;;;;;;28.55;16.25;;;15.90;99.90;;;;;;6158732;23;20092;-91
2022/05/06 08:39:08;;;;;;;27.23;16.75;;;15.90;99.90;;;;;;6186108;23;20079;-90
2022/05/06 08:41:35;;;;;;;27.48;15.02;;;15.90;99.90;;;;;;6159167;23;20013;-91
2022/05/06 08:52:25;;;;;;;26.15;16.77;;;15.90;99.90;;;;;;6168072;23;20021;-90
2022/05/06 08:54:51;;;;;;;26.98;16.65;;;15.90;99.90;;;;;;6185683;23;20337;-90
2022/05/06 08:57:17;;;;;;;24.15;15.73;;;15.90;99.90;;;;;;6158922;23;20021;-91
2022/05/06 08:59:48;;;;;;;24.48;16.60;;;15.90;99.90;;;;;;6185136;23;20024;-90
2022/05/06 09:02:14;;;;;;;23.40;14.90;;;15.90;99.90;;;;;;6185646;23;20059;-91
2022/05/06 09:04:39;;;;;;;23.92;14.98;;;15.80;99.90;;;;;;6157970;23;20104;-90
2022/05/06 09:07:19;;;;;;;24.77;16.13;;;15.80;99.90;;;;;;6159182;23;20017;-92
2022/05/06 09:10:03;;;;;;;24.02;14.90;;;16.10;99.90;;;;;;6185370;23;20052;-91
2022/05/06 09:12:41;;;;;;;24.38;15.43;;;16.00;99.90;;;;;;6159084;23;20020;-91
2022/05/06 09:17:56;;;;;;;22.85;14.38;;;16.10;99.90;;;;;;6159436;23;20023;-91
2022/05/06 09:20:24;;;;;;;23.42;14.60;;;16.20;99.90;;;;;;6162158;23;20021;-90
2022/05/06 09:22:52;;;;;;;23.67;14.10;;;16.30;99.90;;;;;;6161681;23;20096;-90
2022/05/06 09:25:50;;;;;;;21.13;13.65;;;16.20;99.90;;;;;;6169334;23;20021;-91
2022/05/06 09:28:29;;;;;;;21.02;13.48;;;16.50;99.90;;;;;;6175337;23;20021;-91
2022/05/06 09:31:09;;;;;;;22.23;13.00;;;16.60;99.90;;;;;;6188187;23;20460;-91
2022/05/06 09:33:42;;;;;;;20.58;12.88;;;16.80;99.90;;;;;;6161981;23;20077;-91
2022/05/06 09:36:29;;;;;;;18.40;12.30;;;17.00;99.90;;;;;;6171238;23;20021;-90
2022/05/06 09:39:12;;;;;;;18.63;11.35;;;17.10;99.90;;;;;;6187097;23;20020;-92
2022/05/06 09:41:39;;;;;;;20.10;12.25;;;17.20;99.90;;;;;;6163158;23;20052;-90
2022/05/06 09:44:08;;;;;;;19.25;11.50;;;17.20;99.90;;;;;;6186435;23;20013;-91
2022/05/06 09:46:34;;;;;;;16.92;10.25;;;17.40;99.90;;;;;;6193216;23;20023;-91
2022/05/06 09:49:02;;;;;;;17.35;9.90;;;17.60;99.90;;;;;;6159477;23;20017;-91
2022/05/06 09:51:30;;;;;;;17.95;10.73;;;17.70;99.90;;;;;;6159248;23;20044;-91
2022/05/06 09:53:56;;;;;;;19.77;11.90;;;17.80;99.90;;;;;;6159152;23;20028;-90
2022/05/06 09:56:22;;;;;;;20.02;11.73;;;17.90;99.90;;;;;;6192023;23;20013;-88
2022/05/06 09:58:51;;;;;;;17.48;9.95;;;18.10;99.90;;;;;;6161990;23;20088;-89
2022/05/06 10:01:18;;;;;;;15.65;8.80;;;18.20;99.90;;;;;;6160214;23;20365;-89
2022/05/06 10:03:44;;;;;;;14.43;8.52;;;18.60;99.90;;;;;;6193544;23;20028;-89
2022/05/06 10:06:10;;;;;;;13.80;8.63;;;18.50;99.90;;;;;;6174591;23;20093;-88
2022/05/06 10:08:38;;;;;;;15.60;10.02;;;18.60;99.90;;;;;;6161584;23;20323;-90
2022/05/06 10:11:12;;;;;;;14.93;9.13;;;18.80;99.90;;;;;;6188048;23;20028;-91
2022/05/06 10:13:43;;;;;;;14.00;8.60;;;18.90;99.90;;;;;;6187310;23;20446;-88
2022/05/06 10:16:10;;;;;;;14.52;8.65;;;19.00;99.90;;;;;;6159805;23;20056;-89
2022/05/06 10:18:45;;;;;;;15.65;8.50;;;19.20;99.90;;;;;;6185887;23;20017;-87
2022/05/06 10:21:11;;;;;;;14.43;8.48;;;19.30;99.90;;;;;;6157930;23;20020;-88
2022/05/06 10:23:45;;;;;;;12.90;7.18;;;19.50;99.90;;;;;;6160041;23;20140;-88
2022/05/06 10:26:33;;;;;;;13.35;6.93;;;19.40;99.90;;;;;;6183531;23;20070;-91
2022/05/06 10:34:29;;;;;;;11.98;7.10;;;19.70;99.90;;;;;;6159880;23;20017;-94
2022/05/06 10:36:57;;;;;;;13.93;7.72;;;19.90;99.90;;;;;;6157480;23;20023;-93
2022/05/06 10:39:26;;;;;;;13.43;7.70;;;19.80;99.90;;;;;;6185214;23;20052;-94
2022/05/06 10:42:12;;;;;;;12.27;6.40;;;19.70;99.90;;;;;;6159330;23;20104;-93
2022/05/06 10:44:49;;;;;;;13.00;6.53;;;19.80;99.90;;;;;;6185765;23;20016;-92
2022/05/06 10:47:20;;;;;;;12.18;6.38;;;19.50;99.90;;;;;;6161755;23;20422;-93
2022/05/06 10:49:52;;;;;;;13.00;6.80;;;19.40;99.90;;;;;;6158597;23;20017;-93
2022/05/06 10:52:19;;;;;;;11.75;6.03;;;19.60;99.90;;;;;;6189036;23;20075;-89
2022/05/06 10:54:48;;;;;;;12.88;7.22;;;19.90;99.90;;;;;;6184346;23;20359;-88
2022/05/06 10:57:15;;;;;;;12.85;7.03;;;20.00;99.90;;;;;;6159009;23;20025;-91
2022/05/06 11:00:06;;;;;;;14.93;7.88;;;20.20;99.90;;;;;;6185246;23;20044;-87
2022/05/06 11:02:36;;;;;;;13.85;7.90;;;20.50;99.90;;;;;;6160235;23;20088;-87
2022/05/06 11:05:07;;;;;;;13.73;7.32;;;20.70;99.90;;;;;;6183905;23;20013;-88
2022/05/06 11:07:35;;;;;;;13.13;7.97;;;21.00;99.90;;;;;;6184727;23;20481;-86
2022/05/06 11:10:11;;;;;;;15.05;7.25;;;20.80;99.90;;;;;;6182760;23;20013;-87
2022/05/06 11:12:46;;;;;;;14.25;6.82;;;20.70;99.90;;;;;;6183667;23;20168;-87
2022/05/06 11:15:14;;;;;;;12.57;6.53;;;20.70;99.90;;;;;;6156550;23;20017;-91
2022/05/06 11:17:41;;;;;;;11.50;6.28;;;20.70;99.90;;;;;;6156480;23;20112;-87
2022/05/06 11:20:17;;;;;;;15.07;5.13;;;20.80;99.90;;;;;;6155677;23;20025;-88
2022/05/06 11:22:57;;;;;;;8.43;3.90;;;20.90;99.90;;;;;;6187932;23;20053;-92
2022/05/06 11:25:25;;;;;;;8.43;4.05;;;20.90;99.90;;;;;;6190127;23;20021;-85
2022/05/06 11:27:56;;;;;;;9.30;4.38;;;20.90;99.90;;;;;;6158343;23;20096;-88
2022/05/06 11:30:23;;;;;;;9.10;4.18;;;20.80;99.90;;;;;;6157887;23;20020;-84
2022/05/06 11:33:00;;;;;;;8.50;4.00;;;20.80;99.90;;;;;;6187231;23;20047;-85
2022/05/06 11:35:29;;;;;;;10.25;4.22;;;21.00;99.90;;;;;;6188344;23;20385;-93
2022/05/06 11:37:55;;;;;;;8.40;3.55;;;21.10;99.90;;;;;;6194295;23;20036;-89
2022/05/06 11:40:38;;;;;;;8.45;4.25;;;21.30;99.90;;;;;;6207512;23;20017;-87
2022/05/06 11:43:06;;;;;;;8.20;3.70;;;21.40;99.90;;;;;;6164508;23;20047;-90
2022/05/06 11:48:23;;;;;;;11.48;3.47;;;21.40;99.90;;;;;;6160344;23;20021;-89
2022/05/06 11:50:56;;;;;;;7.70;3.20;;;21.60;99.90;;;;;;6160124;23;20043;-89
2022/05/06 11:53:26;;;;;;;7.88;3.22;;;21.60;99.90;;;;;;6185961;23;20013;-89
2022/05/06 11:55:54;;;;;;;8.02;3.45;;;21.50;99.90;;;;;;6160139;23;20013;-90
2022/05/06 11:58:21;;;;;;;10.75;3.50;;;21.60;99.90;;;;;;6186455;23;20017;-89
2022/05/06 12:00:53;;;;;;;8.70;3.40;;;22.10;99.90;;;;;;6185977;23;20017;-91
2022/05/06 12:03:19;;;;;;;7.53;3.50;;;21.90;99.90;;;;;;6160041;23;20051;-90
2022/05/06 12:06:05;;;;;;;8.02;2.95;;;21.80;99.90;;;;;;6163128;23;20020;-89
2022/05/06 12:08:40;;;;;;;10.00;3.35;;;22.00;99.90;;;;;;6162847;23;20013;-88
2022/05/06 12:11:24;;;;;;;7.78;3.30;;;22.60;99.60;;;;;;6187479;23;20017;-88
2022/05/06 12:13:52;;;;;;;;;;;22.40;99.10;;;;;;6159760;23;20028;-88
2022/05/06 12:16:24;;;;;;;7.85;3.40;;;22.10;99.90;;;;;;6160606;23;19927;-89
2022/05/06 12:18:58;;;;;;;8.68;3.30;;;22.70;99.40;;;;;;6161035;23;20021;-89
2022/05/06 12:21:37;;;;;;;6.22;2.55;;;22.20;99.20;;;;;;6186736;23;20333;-90
2022/05/06 12:24:13;;;;;;;;;;;;;;;;;;;;;
2022/05/06 12:27:03;;;;;;;6.50;2.47;;;22.20;97.70;;;;;;6184974;23;20450;-90
2022/05/06 12:29:46;;;;;;;6.85;2.78;;;21.80;96.20;;;;;;6185436;23;20237;-89
2022/05/06 12:32:15;;;;;;;;;;;22.50;96.50;;;;;;6186008;23;20028;-89
2022/05/06 12:34:41;;;;;;;7.20;2.90;;;21.80;96.00;;;;;;6185127;23;19924;-89
2022/05/06 12:37:22;;;;;;;9.00;2.83;;;22.70;97.50;;;;;;6159345;23;20025;-89
2022/05/06 12:39:58;;;;;;;7.40;3.10;;;22.50;95.60;;;;;;6159077;23;20057;-89
2022/05/06 12:42:24;;;;;;;8.80;3.05;;;22.20;96.70;;;;;;6159461;23;20433;-90
2022/05/06 12:44:49;;;;;;;7.70;3.00;;;22.40;96.40;;;;;;6159171;23;20028;-89
2022/05/06 12:50:10;;;;;;;7.70;2.97;;;22.00;95.70;;;;;;6185105;23;20025;-89
2022/05/06 12:52:38;;;;;;;7.97;3.30;;;22.50;95.70;;;;;;6187361;23;20013;-89
2022/05/06 12:55:10;;;;;;;8.55;3.65;;;22.50;95.60;;;;;;6186287;23;20373;-90
2022/05/06 12:57:36;;;;;;;8.23;3.20;;;22.80;94.60;;;;;;6158479;23;20422;-91
2022/05/06 13:00:08;;;;;;;8.80;3.40;;;22.40;94.80;;;;;;6185946;23;20017;-89
2022/05/06 13:02:40;;;;;;;7.57;3.00;;;22.60;94.80;;;;;;6160012;23;20341;-89
2022/05/06 13:05:06;;;;;;;8.20;3.08;;;23.10;95.10;;;;;;6187175;23;20244;-89
2022/05/06 13:07:31;;;;;;;7.53;2.75;;;23.00;94.70;;;;;;6197294;23;20318;-89
2022/05/06 13:10:06;;;;;;;7.80;2.88;;;23.30;94.30;;;;;;6171250;23;20065;-89
2022/05/06 13:12:41;;;;;;;7.50;3.10;;;22.90;93.40;;;;;;6191061;23;20071;-89
2022/05/06 13:15:13;;;;;;;7.38;2.80;;;22.90;93.30;;;;;;6161436;23;20283;-90
2022/05/06 13:17:39;;;;;;;7.40;2.78;;;23.10;93.30;;;;;;6186954;23;20013;-90
2022/05/06 13:20:13;;;;;;;7.10;2.55;;;23.40;93.40;;;;;;6188609;23;20017;-90
2022/05/06 13:22:39;;;;;;;7.25;2.38;;;23.00;92.10;;;;;;6168043;23;20017;-90
2022/05/06 13:25:05;;;;;;;6.65;2.50;;;22.80;92.80;;;;;;6161784;23;20023;-89
2022/05/06 13:27:34;;;;;;;9.35;3.03;;;23.60;92.80;;;;;;6161397;23;20084;-89